createdAt,value
2023-05-18T00:02:06.694Z,5.90
2023-05-18T00:04:52.110Z,6.07
2023-05-18T00:07:37.221Z,6.60
2023-05-18T00:10:22.645Z,5.60
2023-05-18T00:13:07.987Z,6.33
2023-05-18T00:15:53.200Z,6.80
2023-05-18T00:18:39.094Z,6.70
2023-05-18T00:21:24.386Z,6.73
2023-05-18T00:24:10.258Z,6.73
2023-05-18T00:26:55.838Z,6.70
2023-05-18T00:29:41.033Z,6.97
2023-05-18T00:32:26.130Z,6.80
2023-05-18T00:35:11.381Z,7.30
2023-05-18T00:37:56.535Z,7.20
2023-05-18T00:40:42.004Z,7.43
2023-05-18T00:43:27.576Z,6.73
2023-05-18T00:46:13.061Z,7.60
2023-05-18T00:48:58.704Z,7.30
2023-05-18T00:51:45.009Z,7.43
2023-05-18T00:54:30.150Z,7.63
2023-05-18T00:57:15.255Z,7.53
2023-05-18T01:00:00.942Z,7.97
2023-05-18T01:05:21.796Z,8.00
2023-05-18T01:08:07.793Z,9.30
2023-05-18T01:11:35.174Z,9.10
2023-05-18T01:14:29.870Z,8.60
2023-05-18T01:17:54.710Z,8.67
2023-05-18T01:20:57.423Z,9.10
2023-05-18T01:24:01.031Z,9.57
2023-05-18T01:26:49.158Z,8.33
2023-05-18T01:29:34.667Z,8.67
2023-05-18T01:32:20.405Z,8.03
2023-05-18T01:35:06.343Z,7.90
2023-05-18T01:37:51.711Z,8.23
2023-05-18T01:40:55.357Z,8.03
2023-05-18T01:43:48.976Z,8.00
2023-05-18T01:46:46.722Z,7.70
2023-05-18T01:49:53.560Z,8.07
2023-05-18T01:53:06.186Z,8.00
2023-05-18T01:55:53.991Z,8.67
2023-05-18T01:58:39.623Z,8.20
2023-05-18T02:01:25.032Z,8.60
2023-05-18T02:04:11.050Z,8.40
2023-05-18T02:06:56.555Z,8.87
2023-05-18T02:09:42.038Z,9.50
2023-05-18T02:12:27.285Z,9.23
2023-05-18T02:15:12.517Z,10.43
2023-05-18T02:17:57.742Z,10.17
2023-05-18T02:20:43.248Z,9.23
2023-05-18T02:23:28.543Z,9.03
2023-05-18T02:26:13.450Z,8.83
2023-05-18T02:28:58.437Z,9.73
2023-05-18T02:31:44.114Z,9.27
2023-05-18T02:34:29.476Z,8.60
2023-05-18T02:37:14.745Z,9.20
2023-05-18T02:40:00.730Z,8.97
2023-05-18T02:42:45.971Z,9.33
2023-05-18T02:45:31.460Z,10.40
2023-05-18T02:48:17.073Z,10.87
2023-05-18T02:51:02.034Z,10.20
2023-05-18T02:53:47.656Z,10.20
2023-05-18T02:56:32.484Z,10.27
2023-05-18T02:59:17.816Z,10.17
2023-05-18T03:02:02.660Z,9.70
2023-05-18T03:04:49.458Z,8.83
2023-05-18T03:07:34.890Z,9.83
2023-05-18T03:10:21.022Z,10.23
2023-05-18T03:13:06.126Z,10.20
2023-05-18T03:15:51.734Z,9.90
2023-05-18T03:18:36.791Z,10.37
2023-05-18T03:21:22.275Z,10.47
2023-05-18T03:24:07.458Z,11.10
2023-05-18T03:26:52.911Z,10.03
2023-05-18T03:29:38.056Z,10.00
2023-05-18T03:32:24.130Z,10.07
2023-05-18T03:35:09.779Z,9.73
2023-05-18T03:37:55.490Z,9.70
2023-05-18T03:40:40.966Z,9.70
2023-05-18T03:43:26.420Z,9.33
2023-05-18T03:46:11.552Z,8.53
2023-05-18T03:48:56.968Z,9.73
2023-05-18T03:51:42.501Z,10.13
2023-05-18T03:54:27.931Z,9.17
2023-05-18T03:57:13.207Z,9.20
2023-05-18T03:59:59.216Z,9.30
2023-05-18T04:02:44.511Z,8.57
2023-05-18T04:05:30.260Z,8.87
2023-05-18T04:08:15.169Z,9.43
2023-05-18T04:11:00.370Z,8.83
2023-05-18T04:13:46.883Z,8.47
2023-05-18T04:16:32.216Z,8.83
2023-05-18T04:19:17.709Z,8.37
2023-05-18T04:22:04.158Z,8.23
2023-05-18T04:24:49.336Z,8.93
2023-05-18T04:27:34.628Z,8.83
2023-05-18T04:30:20.969Z,8.47
2023-05-18T04:33:06.574Z,8.77
2023-05-18T04:35:51.773Z,8.03
2023-05-18T04:38:37.157Z,8.10
2023-05-18T04:41:22.443Z,7.83
2023-05-18T04:44:07.688Z,7.87
2023-05-18T04:46:54.262Z,9.17
2023-05-18T04:49:39.598Z,9.40
2023-05-18T04:52:25.093Z,8.13
2023-05-18T04:55:10.267Z,7.87
2023-05-18T04:57:55.683Z,8.30
2023-05-18T05:00:41.113Z,9.17
2023-05-18T05:03:26.544Z,7.17
2023-05-18T05:06:11.831Z,7.07
2023-05-18T05:08:56.797Z,7.10
2023-05-18T05:11:42.209Z,10.03
2023-05-18T05:14:27.486Z,7.43
2023-05-18T05:17:12.968Z,6.13
2023-05-18T05:19:58.513Z,5.33
2023-05-18T05:22:43.769Z,5.73
2023-05-18T05:25:29.376Z,5.50
2023-05-18T05:28:14.550Z,5.40
2023-05-18T05:31:00.296Z,4.70
2023-05-18T05:33:45.522Z,4.73
2023-05-18T05:36:30.316Z,4.67
2023-05-18T05:39:15.638Z,4.27
2023-05-18T05:42:01.146Z,4.50
2023-05-18T05:44:46.554Z,4.23
2023-05-18T05:47:31.805Z,4.33
2023-05-18T05:50:17.542Z,3.80
2023-05-18T05:53:02.969Z,4.00
2023-05-18T05:55:48.055Z,3.47
2023-05-18T05:58:33.236Z,4.00
2023-05-18T06:01:18.250Z,3.58
2023-05-18T06:04:03.593Z,3.78
2023-05-18T06:06:48.902Z,3.90
2023-05-18T06:09:34.393Z,3.70
2023-05-18T06:12:19.737Z,3.30
2023-05-18T06:15:05.422Z,3.50
2023-05-18T06:17:50.298Z,3.83
2023-05-18T06:20:35.716Z,4.18
2023-05-18T06:23:21.136Z,3.88
2023-05-18T06:26:06.666Z,3.30
2023-05-18T06:28:52.023Z,3.30
2023-05-18T06:31:37.741Z,3.45
2023-05-18T06:34:23.062Z,3.77
2023-05-18T06:37:08.049Z,3.33
2023-05-18T06:39:53.240Z,3.67
2023-05-18T06:42:38.709Z,3.25
2023-05-18T06:45:23.964Z,3.65
2023-05-18T06:48:09.421Z,3.42
2023-05-18T06:50:55.309Z,3.95
2023-05-18T06:53:40.181Z,3.72
2023-05-18T06:56:25.572Z,3.75
2023-05-18T06:59:10.865Z,3.45
2023-05-18T07:01:56.421Z,3.55
2023-05-18T07:04:41.930Z,3.22
2023-05-18T07:07:27.602Z,3.75
2023-05-18T07:10:12.826Z,3.65
2023-05-18T07:12:58.300Z,3.25
2023-05-18T07:15:43.553Z,3.63
2023-05-18T07:18:29.169Z,3.50
2023-05-18T07:21:14.338Z,3.45
2023-05-18T07:23:59.933Z,3.72
2023-05-18T07:26:45.118Z,3.40
2023-05-18T07:29:30.544Z,4.10
2023-05-18T07:32:16.142Z,3.40
2023-05-18T07:35:01.259Z,3.80
2023-05-18T07:37:46.560Z,4.00
2023-05-18T07:40:31.899Z,3.90
2023-05-18T07:43:17.334Z,3.40
2023-05-18T07:46:02.646Z,3.40
2023-05-18T07:48:47.549Z,3.67
2023-05-18T07:51:32.893Z,3.50
2023-05-18T07:54:18.434Z,3.85
2023-05-18T07:57:04.127Z,3.47
2023-05-18T07:59:49.309Z,3.78
2023-05-18T08:02:34.406Z,3.58
2023-05-18T08:05:19.662Z,3.80
2023-05-18T08:08:06.785Z,3.40
2023-05-18T08:10:52.453Z,3.38
2023-05-18T08:13:37.623Z,3.70
2023-05-18T08:16:23.087Z,3.70
2023-05-18T08:19:08.734Z,3.90
2023-05-18T08:21:54.138Z,3.53
2023-05-18T08:24:39.680Z,3.60
2023-05-18T08:27:24.840Z,3.38
2023-05-18T08:30:10.905Z,3.22
2023-05-18T08:32:56.007Z,3.85
2023-05-18T08:35:41.299Z,3.40
2023-05-18T08:38:26.886Z,3.70
2023-05-18T08:41:21.446Z,3.75
2023-05-18T08:44:15.848Z,4.00
2023-05-18T08:47:03.176Z,3.80
2023-05-18T08:49:51.580Z,3.65
2023-05-18T08:52:42.158Z,3.40
2023-05-18T08:55:29.092Z,3.75
2023-05-18T08:58:18.904Z,3.80
2023-05-18T09:01:04.594Z,3.50
2023-05-18T09:03:50.332Z,3.70
2023-05-18T09:06:35.769Z,3.67
2023-05-18T09:09:22.059Z,3.45
2023-05-18T09:12:08.429Z,3.35
2023-05-18T09:14:54.581Z,3.47
2023-05-18T09:17:40.544Z,3.90
2023-05-18T09:20:26.214Z,3.80
2023-05-18T09:23:15.875Z,4.05
2023-05-18T09:26:01.446Z,5.45
2023-05-18T09:28:51.310Z,4.60
2023-05-18T09:31:37.135Z,4.32
2023-05-18T09:34:22.648Z,3.88
2023-05-18T09:37:09.405Z,3.60
2023-05-18T09:40:02.966Z,4.07
2023-05-18T09:42:48.528Z,4.00
2023-05-18T09:45:42.825Z,4.15
2023-05-18T09:48:28.331Z,3.60
2023-05-18T09:51:14.830Z,3.70
2023-05-18T09:54:00.418Z,3.47
2023-05-18T09:56:52.334Z,3.67
2023-05-18T09:59:43.907Z,3.65
2023-05-18T10:02:30.631Z,3.88
2023-05-18T10:05:20.731Z,3.67
2023-05-18T10:08:05.934Z,4.30
2023-05-18T10:10:51.261Z,4.43
2023-05-18T10:13:36.753Z,3.67
2023-05-18T10:16:24.404Z,3.70
2023-05-18T10:19:12.380Z,4.10
2023-05-18T10:21:58.083Z,3.75
2023-05-18T10:24:45.853Z,3.80
2023-05-18T10:27:35.660Z,4.43
2023-05-18T10:30:21.816Z,4.22
2023-05-18T10:33:14.073Z,3.85
2023-05-18T10:36:06.763Z,4.03
2023-05-18T10:38:52.151Z,3.70
2023-05-18T10:41:38.025Z,3.55
2023-05-18T10:44:24.329Z,3.40
2023-05-18T10:47:10.777Z,3.65
2023-05-18T10:49:59.311Z,4.00
2023-05-18T10:52:45.799Z,3.58
2023-05-18T10:55:31.754Z,3.80
2023-05-18T10:58:20.546Z,3.78
2023-05-18T11:01:09.055Z,3.83
2023-05-18T11:03:54.411Z,3.47
2023-05-18T11:06:40.084Z,3.75
2023-05-18T11:09:26.176Z,3.83
2023-05-18T11:12:17.040Z,3.90
2023-05-18T11:15:02.329Z,3.70
2023-05-18T11:18:14.068Z,3.83
2023-05-18T11:20:59.358Z,3.88
2023-05-18T11:24:07.292Z,3.90
2023-05-18T11:27:01.500Z,4.10
2023-05-18T11:29:46.859Z,3.78
2023-05-18T11:32:31.813Z,3.90
2023-05-18T11:35:23.757Z,3.85
2023-05-18T11:38:08.752Z,3.90
2023-05-18T11:40:58.528Z,3.65
2023-05-18T11:43:57.901Z,3.30
2023-05-18T11:47:02.745Z,3.40
2023-05-18T11:49:50.883Z,3.30
2023-05-18T11:52:51.542Z,3.92
2023-05-18T11:55:41.422Z,3.42
2023-05-18T11:58:26.829Z,3.63
2023-05-18T12:01:13.230Z,3.97
2023-05-18T12:03:58.810Z,3.40
2023-05-18T12:06:44.636Z,3.40
2023-05-18T12:09:30.902Z,3.90
2023-05-18T12:12:17.616Z,3.53
2023-05-18T12:15:05.055Z,3.85
2023-05-18T12:17:51.291Z,3.90
2023-05-18T12:20:40.189Z,3.55
2023-05-18T12:23:35.765Z,3.97
2023-05-18T12:26:21.272Z,3.78
2023-05-18T12:29:06.888Z,3.60
2023-05-18T12:31:51.962Z,3.20
2023-05-18T12:34:38.828Z,3.97
2023-05-18T12:37:34.259Z,3.58
2023-05-18T12:40:24.040Z,3.58
2023-05-18T12:43:09.307Z,3.63
2023-05-18T12:45:54.938Z,3.55
2023-05-18T12:48:46.047Z,3.60
2023-05-18T12:51:35.508Z,3.42
2023-05-18T12:54:28.504Z,3.40
2023-05-18T12:57:14.047Z,3.45
2023-05-18T13:00:00.847Z,3.65
2023-05-18T13:02:46.464Z,3.08
2023-05-18T13:05:31.814Z,3.28
2023-05-18T13:08:20.486Z,3.40
2023-05-18T13:11:13.434Z,3.00
2023-05-18T13:14:04.700Z,3.22
2023-05-18T13:16:53.869Z,3.35
2023-05-18T13:19:38.997Z,3.53
2023-05-18T13:22:24.363Z,3.50
2023-05-18T13:25:10.027Z,3.53
2023-05-18T13:27:55.981Z,3.78
2023-05-18T13:30:42.343Z,3.30
2023-05-18T13:33:27.690Z,3.28
2023-05-18T13:36:13.757Z,3.50
2023-05-18T13:38:59.564Z,3.35
2023-05-18T13:41:44.722Z,3.55
2023-05-18T13:44:30.102Z,3.10
2023-05-18T13:47:15.596Z,3.88
2023-05-18T13:50:01.025Z,3.30
2023-05-18T13:52:47.049Z,3.47
2023-05-18T13:55:32.595Z,3.15
2023-05-18T13:58:18.010Z,3.30
2023-05-18T14:01:03.465Z,3.35
2023-05-18T14:03:48.637Z,3.10
2023-05-18T14:06:34.088Z,3.20
2023-05-18T14:09:19.004Z,3.33
2023-05-18T14:12:04.670Z,3.55
2023-05-18T14:14:50.144Z,3.28
2023-05-18T14:17:35.581Z,3.05
2023-05-18T14:20:20.785Z,3.70
2023-05-18T14:23:07.629Z,3.70
2023-05-18T14:25:55.310Z,3.42
2023-05-18T14:28:40.724Z,3.90
2023-05-18T14:31:25.869Z,3.65
2023-05-18T14:34:11.028Z,3.40
2023-05-18T14:36:56.244Z,2.75
2023-05-18T14:39:41.734Z,3.13
2023-05-18T14:42:27.362Z,3.60
2023-05-18T14:45:12.522Z,3.20
2023-05-18T14:47:57.926Z,3.35
2023-05-18T14:50:43.322Z,3.50
2023-05-18T14:53:28.611Z,4.03
2023-05-18T14:56:14.011Z,3.58
2023-05-18T14:58:59.423Z,3.63
2023-05-18T15:01:44.932Z,3.38
2023-05-18T15:04:30.449Z,4.32
2023-05-18T15:07:15.715Z,3.47
2023-05-18T15:10:01.001Z,3.10
2023-05-18T15:12:46.388Z,3.30
2023-05-18T15:15:31.872Z,3.30
2023-05-18T15:18:17.283Z,3.38
2023-05-18T15:21:02.673Z,3.33
2023-05-18T15:23:47.989Z,3.35
2023-05-18T15:26:33.489Z,3.58
2023-05-18T15:29:19.012Z,3.55
2023-05-18T15:32:04.702Z,3.50
2023-05-18T15:34:50.110Z,3.50
2023-05-18T15:37:35.772Z,3.60
2023-05-18T15:40:20.911Z,3.40
2023-05-18T15:43:06.468Z,4.03
2023-05-18T15:45:51.810Z,3.75
2023-05-18T15:48:37.017Z,3.55
2023-05-18T15:51:22.286Z,3.30
2023-05-18T15:54:07.901Z,3.90
2023-05-18T15:56:53.253Z,3.70
2023-05-18T15:59:38.612Z,3.70
2023-05-18T16:02:25.767Z,3.58
2023-05-18T16:05:11.524Z,3.60
2023-05-18T16:07:56.884Z,3.55
2023-05-18T16:10:42.331Z,3.60
2023-05-18T16:13:27.947Z,3.58
2023-05-18T16:16:13.099Z,3.45
2023-05-18T16:18:58.433Z,3.47
2023-05-18T16:21:44.484Z,3.80
2023-05-18T16:24:29.518Z,4.05
2023-05-18T16:27:14.927Z,4.05
2023-05-18T16:30:00.405Z,3.83
2023-05-18T16:32:45.670Z,4.13
2023-05-18T16:35:30.975Z,3.70
2023-05-18T16:38:16.638Z,4.07
2023-05-18T16:41:02.583Z,4.80
2023-05-18T16:43:47.932Z,4.68
2023-05-18T16:46:33.388Z,3.50
2023-05-18T16:49:18.627Z,3.72
2023-05-18T16:52:04.306Z,3.40
2023-05-18T16:54:49.182Z,3.65
2023-05-18T16:57:34.621Z,3.90
2023-05-18T17:00:20.515Z,4.10
2023-05-18T17:03:06.168Z,3.70
2023-05-18T17:05:51.410Z,3.80
2023-05-18T17:08:36.976Z,3.42
2023-05-18T17:11:22.355Z,3.45
2023-05-18T17:14:07.824Z,3.55
2023-05-18T17:16:53.426Z,4.00
2023-05-18T17:19:38.740Z,3.90
2023-05-18T17:22:24.522Z,3.83
2023-05-18T17:25:09.691Z,3.85
2023-05-18T17:27:54.996Z,4.47
2023-05-18T17:30:40.401Z,3.75
2023-05-18T17:33:25.284Z,3.70
2023-05-18T17:36:10.846Z,4.10
2023-05-18T17:38:56.041Z,3.90
2023-05-18T17:41:41.801Z,3.53
2023-05-18T17:44:27.274Z,3.70
2023-05-18T17:47:13.096Z,4.07
2023-05-18T17:49:58.772Z,3.78
2023-05-18T17:52:44.187Z,3.50
2023-05-18T17:55:29.720Z,3.67
2023-05-18T17:58:15.111Z,4.00
2023-05-18T18:01:00.725Z,3.90
2023-05-18T18:03:46.135Z,3.40
2023-05-18T18:06:31.471Z,4.00
2023-05-18T18:09:17.014Z,3.90
2023-05-18T18:12:02.295Z,4.03
2023-05-18T18:14:47.675Z,3.65
2023-05-18T18:17:33.167Z,3.83
2023-05-18T18:20:18.643Z,4.05
2023-05-18T18:23:04.113Z,3.60
2023-05-18T18:25:49.135Z,3.80
2023-05-18T18:28:34.929Z,4.10
2023-05-18T18:31:20.435Z,3.80
2023-05-18T18:34:05.820Z,3.53
2023-05-18T18:36:51.362Z,3.97
2023-05-18T18:39:36.716Z,3.50
2023-05-18T18:42:22.106Z,3.40
2023-05-18T18:45:07.914Z,3.80
2023-05-18T18:47:53.352Z,3.40
2023-05-18T18:50:38.900Z,3.92
2023-05-18T18:53:24.078Z,3.75
2023-05-18T18:56:09.617Z,3.65
2023-05-18T18:58:54.902Z,3.97
2023-05-18T19:01:40.358Z,4.00
2023-05-18T19:04:25.768Z,3.53
2023-05-18T19:07:11.030Z,3.30
2023-05-18T19:09:56.616Z,3.42
2023-05-18T19:12:41.887Z,3.20
2023-05-18T19:15:27.137Z,3.25
2023-05-18T19:18:12.603Z,3.30
2023-05-18T19:20:57.669Z,3.45
2023-05-18T19:23:43.464Z,3.47
2023-05-18T19:26:29.226Z,2.90
2023-05-18T19:29:14.528Z,2.85
2023-05-18T19:32:00.046Z,3.35
2023-05-18T19:34:45.330Z,3.90
2023-05-18T19:37:30.850Z,2.97
2023-05-18T19:40:16.737Z,2.80
2023-05-18T19:43:02.240Z,3.25
2023-05-18T19:45:47.805Z,2.95
2023-05-18T19:48:33.032Z,3.15
2023-05-18T19:51:18.474Z,3.15
2023-05-18T19:54:04.029Z,3.00
2023-05-18T19:56:49.303Z,3.10
2023-05-18T19:59:34.821Z,3.47
2023-05-18T20:02:20.018Z,3.45
2023-05-18T20:05:05.575Z,3.35
2023-05-18T20:07:51.484Z,3.50
2023-05-18T20:10:36.580Z,3.63
2023-05-18T20:13:22.388Z,3.58
2023-05-18T20:16:08.375Z,3.42
2023-05-18T20:18:53.837Z,3.70
2023-05-18T20:21:39.305Z,3.28
2023-05-18T20:24:24.390Z,3.22
2023-05-18T20:27:10.407Z,3.13
2023-05-18T20:29:55.562Z,3.80
2023-05-18T20:32:40.962Z,3.30
2023-05-18T20:35:26.428Z,3.50
2023-05-18T20:38:11.803Z,3.45
2023-05-18T20:40:56.879Z,4.30
2023-05-18T20:43:42.297Z,4.22
2023-05-18T20:46:28.233Z,4.43
2023-05-18T20:49:13.391Z,6.68
2023-05-18T20:51:58.461Z,6.22
2023-05-18T20:54:43.696Z,4.40
2023-05-18T20:57:28.864Z,5.40
2023-05-18T21:00:15.554Z,4.93
2023-05-18T21:03:00.934Z,5.10
2023-05-18T21:05:46.366Z,5.72
2023-05-18T21:08:31.655Z,5.00
2023-05-18T21:11:17.094Z,4.50
2023-05-18T21:14:02.211Z,4.95
2023-05-18T21:16:47.654Z,5.20
2023-05-18T21:19:33.071Z,4.75
2023-05-18T21:22:19.730Z,4.78
2023-05-18T21:25:05.359Z,4.85
2023-05-18T21:27:50.663Z,4.60
2023-05-18T21:30:36.128Z,4.15
2023-05-18T21:33:22.064Z,4.82
2023-05-18T21:36:07.485Z,4.25
2023-05-18T21:38:52.627Z,4.65
2023-05-18T21:41:38.076Z,4.93
2023-05-18T21:44:23.642Z,5.05
2023-05-18T21:47:08.852Z,5.85
2023-05-18T21:49:54.337Z,6.43
2023-05-18T21:52:39.837Z,5.65
2023-05-18T21:55:25.049Z,5.50
2023-05-18T21:58:10.334Z,5.15
2023-05-18T22:00:55.557Z,5.00
2023-05-18T22:03:41.029Z,5.15
2023-05-18T22:06:26.582Z,5.00
2023-05-18T22:09:11.819Z,6.20
2023-05-18T22:11:57.438Z,6.15
2023-05-18T22:14:42.806Z,6.20
2023-05-18T22:17:28.097Z,6.07
2023-05-18T22:20:13.477Z,5.55
2023-05-18T22:22:59.474Z,6.50
2023-05-18T22:25:45.801Z,6.20
2023-05-18T22:28:30.896Z,5.90
2023-05-18T22:31:16.262Z,5.47
2023-05-18T22:34:01.815Z,5.80
2023-05-18T22:36:47.152Z,5.80
2023-05-18T22:39:32.685Z,5.80
2023-05-18T22:42:18.162Z,6.00
2023-05-18T22:45:04.176Z,6.22
2023-05-18T22:47:49.940Z,7.07
2023-05-18T22:50:35.419Z,6.18
2023-05-18T22:53:20.513Z,6.07
2023-05-18T22:56:06.152Z,5.72
2023-05-18T22:58:51.349Z,5.20
2023-05-18T23:01:36.783Z,5.85
2023-05-18T23:04:21.891Z,5.60
2023-05-18T23:07:07.371Z,5.03
2023-05-18T23:09:53.371Z,4.70
2023-05-18T23:12:38.888Z,5.15
2023-05-18T23:15:24.208Z,4.85
2023-05-18T23:18:09.624Z,4.72
2023-05-18T23:20:55.006Z,4.78
2023-05-18T23:23:40.492Z,4.68
2023-05-18T23:26:25.812Z,5.45
2023-05-18T23:29:11.332Z,4.80
2023-05-18T23:31:56.654Z,5.25
2023-05-18T23:34:42.088Z,5.20
2023-05-18T23:37:29.017Z,5.55
2023-05-18T23:40:18.051Z,5.20
2023-05-18T23:43:03.557Z,5.40
2023-05-18T23:45:48.791Z,5.30
2023-05-18T23:48:34.194Z,5.18
2023-05-18T23:51:20.248Z,5.28
2023-05-18T23:54:06.037Z,5.25
2023-05-18T23:56:51.313Z,5.45
2023-05-18T23:59:36.867Z,5.78
